Aérodrome :
LOGIN :

S'inscrire | Disclaimer

   EN    FR    IT 

 










Légende :    VFR   VFR Marginal   IFR   IFR Intensif   IFR Très Intensif
Visi : 
Plafond : 
>= 8 km
>= 3000ft
5 à 8 km
1000 à 3000 ft
1500m à 5 km
500 à 1000 ft
800 à 1500m
200 à 500 ft
< 800m
< 200 ft
Symboles :   Orages  Brouillard  Fortes neiges  Fortes précipitations  Vent > 20 kt
SIGMETs :   Divers  Orages  Givrage  Turbulence  Onde Orograph.  Cendres Volcan.







- Altitude de l'aérodrome : 218 ft
- Code IATA : LBG
- Voir les cartes d'approche


LFPB - Paris / Le Bourget

DERNIER METAR :
  • 230800Z AUTO 29007KT 260V340 9999 OVC027 19/12 Q1020 NOSIG

METARs EXPIRÉS :
  • 230730Z AUTO 27008KT 240V310 9999 BKN024 OVC029 18/12 Q1020 NOSIG
  • 230700Z AUTO 28007KT 230V310 9999 OVC025 17/12 Q1019 NOSIG
  • 230630Z AUTO 25008KT 9999 OVC023 17/13 Q1019 NOSIG
  • 230600Z AUTO 28006KT 250V330 9999 BKN022 BKN027 17/12 Q1019 NOSIG
  • 230530Z AUTO 28005KT 230V320 9999 BKN020 17/13 Q1019 NOSIG

TAF TAF LFPB
Valide du 23 à 06h jusqu'au 24 à 06h UTC


230500Z 2306/2406 27007KT CAVOK
BECMG 2309/2311 27010G20KT
BECMG 2316/2318 29010KT
ATIS : +33 1 48 62 43 92
Pas de NOTAMs connus pour ce terrain.



MET'MAP, la Météo Aéronautique d'un coup d'oeil ! - Copyright ORBIFLY Décembre 2007 - Disclaimer

ORBIFLY MET'MAP TEAM :

Programmation & Développement : Alexandra Zaïnal
Conception & Développement : Baudouin d'Aumeries
Co-Programmation & Développement : Marc-Olivier Méhu
Soutien technique & logistique : Manuel Goepfert

Contact : metmap@orbifly.com




SOURCES & CREDITS :

   NOAA